sensor_id;sensor_type;location;lat;lon;timestamp;temperature;humidity
7028;DHT22;3555;53.248;10.336;2024-01-07T00:00:28;-1.60;99.90
7028;DHT22;3555;53.248;10.336;2024-01-07T00:02:56;-1.60;99.90
7028;DHT22;3555;53.248;10.336;2024-01-07T00:05:24;-1.60;99.90
7028;DHT22;3555;53.248;10.336;2024-01-07T00:07:51;-1.70;99.90
7028;DHT22;3555;53.248;10.336;2024-01-07T00:10:18;-1.60;99.90
7028;DHT22;3555;53.248;10.336;2024-01-07T00:12:45;-1.60;99.90
7028;DHT22;3555;53.248;10.336;2024-01-07T00:15:12;-1.60;99.90
7028;DHT22;3555;53.248;10.336;2024-01-07T00:17:38;-1.70;99.90
7028;DHT22;3555;53.248;10.336;2024-01-07T00:20:06;-1.70;99.90
7028;DHT22;3555;53.248;10.336;2024-01-07T00:22:35;-1.80;99.90
7028;DHT22;3555;53.248;10.336;2024-01-07T00:25:02;-1.80;99.90
7028;DHT22;3555;53.248;10.336;2024-01-07T00:27:29;-1.80;99.90
7028;DHT22;3555;53.248;10.336;2024-01-07T00:29:55;-1.80;99.90
7028;DHT22;3555;53.248;10.336;2024-01-07T00:32:22;-1.80;99.90
7028;DHT22;3555;53.248;10.336;2024-01-07T00:34:49;-1.80;99.90
7028;DHT22;3555;53.248;10.336;2024-01-07T00:37:16;-1.80;99.90
7028;DHT22;3555;53.248;10.336;2024-01-07T00:39:44;-1.80;99.90
7028;DHT22;3555;53.248;10.336;2024-01-07T00:42:11;-1.90;99.90
7028;DHT22;3555;53.248;10.336;2024-01-07T00:44:38;-1.90;99.90
7028;DHT22;3555;53.248;10.336;2024-01-07T00:47:05;-1.80;99.90
7028;DHT22;3555;53.248;10.336;2024-01-07T00:49:32;-1.90;99.90
7028;DHT22;3555;53.248;10.336;2024-01-07T00:51:58;-1.90;99.90
7028;DHT22;3555;53.248;10.336;2024-01-07T00:54:25;-1.90;99.90
7028;DHT22;3555;53.248;10.336;2024-01-07T00:56:53;-1.90;99.90
7028;DHT22;3555;53.248;10.336;2024-01-07T00:59:20;-1.90;99.90
7028;DHT22;3555;53.248;10.336;2024-01-07T01:01:47;-2.00;99.90
7028;DHT22;3555;53.248;10.336;2024-01-07T01:04:14;-2.00;99.90
7028;DHT22;3555;53.248;10.336;2024-01-07T01:06:41;-1.90;99.90
7028;DHT22;3555;53.248;10.336;2024-01-07T01:09:07;-1.90;99.90
7028;DHT22;3555;53.248;10.336;2024-01-07T01:11:34;-1.90;99.90
7028;DHT22;3555;53.248;10.336;2024-01-07T01:14:02;-1.90;99.90
7028;DHT22;3555;53.248;10.336;2024-01-07T01:16:29;-1.90;99.90
7028;DHT22;3555;53.248;10.336;2024-01-07T01:18:56;-1.90;99.90
7028;DHT22;3555;53.248;10.336;2024-01-07T01:21:23;-1.90;99.90
7028;DHT22;3555;53.248;10.336;2024-01-07T01:23:50;-1.90;99.90
7028;DHT22;3555;53.248;10.336;2024-01-07T01:26:17;-1.90;99.90
7028;DHT22;3555;53.248;10.336;2024-01-07T01:28:43;-1.90;99.90
7028;DHT22;3555;53.248;10.336;2024-01-07T01:31:14;-1.90;99.90
7028;DHT22;3555;53.248;10.336;2024-01-07T01:33:41;-1.90;99.90
7028;DHT22;3555;53.248;10.336;2024-01-07T01:36:08;-2.00;99.90
7028;DHT22;3555;53.248;10.336;2024-01-07T01:38:35;-2.00;99.90
7028;DHT22;3555;53.248;10.336;2024-01-07T01:41:02;-1.90;99.90
7028;DHT22;3555;53.248;10.336;2024-01-07T01:43:29;-2.00;99.90
7028;DHT22;3555;53.248;10.336;2024-01-07T01:45:56;-2.00;99.90
7028;DHT22;3555;53.248;10.336;2024-01-07T01:48:26;-2.00;99.90
7028;DHT22;3555;53.248;10.336;2024-01-07T01:50:53;-2.00;99.90
7028;DHT22;3555;53.248;10.336;2024-01-07T01:53:24;-2.00;99.90
7028;DHT22;3555;53.248;10.336;2024-01-07T01:55:51;-2.00;99.90
7028;DHT22;3555;53.248;10.336;2024-01-07T01:58:19;-2.00;99.90
7028;DHT22;3555;53.248;10.336;2024-01-07T02:00:47;-2.00;99.90
7028;DHT22;3555;53.248;10.336;2024-01-07T02:03:15;-2.00;99.90
7028;DHT22;3555;53.248;10.336;2024-01-07T02:05:43;-2.00;99.90
7028;DHT22;3555;53.248;10.336;2024-01-07T02:08:11;-2.00;99.90
7028;DHT22;3555;53.248;10.336;2024-01-07T02:10:37;-2.00;99.90
7028;DHT22;3555;53.248;10.336;2024-01-07T02:13:04;-2.00;99.90
7028;DHT22;3555;53.248;10.336;2024-01-07T02:15:31;-2.00;99.90
7028;DHT22;3555;53.248;10.336;2024-01-07T02:17:59;-1.90;99.90
7028;DHT22;3555;53.248;10.336;2024-01-07T02:20:26;-1.90;99.90
7028;DHT22;3555;53.248;10.336;2024-01-07T02:22:54;-2.00;99.90
7028;DHT22;3555;53.248;10.336;2024-01-07T02:25:24;-2.00;99.90
7028;DHT22;3555;53.248;10.336;2024-01-07T02:27:51;-1.90;99.90
7028;DHT22;3555;53.248;10.336;2024-01-07T02:30:18;-1.90;99.90
7028;DHT22;3555;53.248;10.336;2024-01-07T02:32:45;-1.90;99.90
7028;DHT22;3555;53.248;10.336;2024-01-07T02:35:12;-1.90;99.90
7028;DHT22;3555;53.248;10.336;2024-01-07T02:37:39;-1.90;99.90
7028;DHT22;3555;53.248;10.336;2024-01-07T02:40:07;-1.90;99.90
7028;DHT22;3555;53.248;10.336;2024-01-07T02:42:35;-1.80;99.90
7028;DHT22;3555;53.248;10.336;2024-01-07T02:45:02;-2.00;99.90
7028;DHT22;3555;53.248;10.336;2024-01-07T02:47:29;-2.00;99.90
7028;DHT22;3555;53.248;10.336;2024-01-07T02:49:56;-2.10;99.90
7028;DHT22;3555;53.248;10.336;2024-01-07T02:52:23;-2.10;99.90
7028;DHT22;3555;53.248;10.336;2024-01-07T02:54:50;-2.00;99.90
7028;DHT22;3555;53.248;10.336;2024-01-07T02:57:17;-2.00;99.90
7028;DHT22;3555;53.248;10.336;2024-01-07T02:59:45;-1.90;99.90
7028;DHT22;3555;53.248;10.336;2024-01-07T03:02:12;-2.00;99.90
7028;DHT22;3555;53.248;10.336;2024-01-07T03:04:39;-1.90;99.90
7028;DHT22;3555;53.248;10.336;2024-01-07T03:07:05;-2.10;99.90
7028;DHT22;3555;53.248;10.336;2024-01-07T03:09:32;-2.00;99.90
7028;DHT22;3555;53.248;10.336;2024-01-07T03:11:59;-2.00;99.90
7028;DHT22;3555;53.248;10.336;2024-01-07T03:14:26;-1.90;99.90
7028;DHT22;3555;53.248;10.336;2024-01-07T03:16:54;-2.00;99.90
7028;DHT22;3555;53.248;10.336;2024-01-07T03:19:21;-2.00;99.90
7028;DHT22;3555;53.248;10.336;2024-01-07T03:21:48;-1.90;99.90
7028;DHT22;3555;53.248;10.336;2024-01-07T03:24:15;-1.90;99.90
7028;DHT22;3555;53.248;10.336;2024-01-07T03:26:42;-2.00;99.90
7028;DHT22;3555;53.248;10.336;2024-01-07T03:29:09;-2.00;99.90
7028;DHT22;3555;53.248;10.336;2024-01-07T03:31:35;-2.10;99.90
7028;DHT22;3555;53.248;10.336;2024-01-07T03:34:04;-2.20;99.90
7028;DHT22;3555;53.248;10.336;2024-01-07T03:36:30;-2.10;99.90
7028;DHT22;3555;53.248;10.336;2024-01-07T03:38:57;-2.00;99.90
7028;DHT22;3555;53.248;10.336;2024-01-07T03:41:24;-2.10;99.90
7028;DHT22;3555;53.248;10.336;2024-01-07T03:43:51;-2.00;99.90
7028;DHT22;3555;53.248;10.336;2024-01-07T03:46:18;-1.90;99.90
7028;DHT22;3555;53.248;10.336;2024-01-07T03:48:45;-1.90;99.90
7028;DHT22;3555;53.248;10.336;2024-01-07T03:51:13;-1.80;99.90
7028;DHT22;3555;53.248;10.336;2024-01-07T03:53:40;-1.80;99.90
7028;DHT22;3555;53.248;10.336;2024-01-07T03:56:07;-1.90;99.90
7028;DHT22;3555;53.248;10.336;2024-01-07T03:58:34;-1.80;99.90
7028;DHT22;3555;53.248;10.336;2024-01-07T04:01:01;-1.80;99.90
7028;DHT22;3555;53.248;10.336;2024-01-07T04:03:28;-1.80;99.90
7028;DHT22;3555;53.248;10.336;2024-01-07T04:05:54;-1.70;99.90
7028;DHT22;3555;53.248;10.336;2024-01-07T04:08:22;-1.60;99.90
7028;DHT22;3555;53.248;10.336;2024-01-07T04:10:49;-1.70;99.90
7028;DHT22;3555;53.248;10.336;2024-01-07T04:13:16;-1.60;99.90
7028;DHT22;3555;53.248;10.336;2024-01-07T04:15:43;-1.50;99.90
7028;DHT22;3555;53.248;10.336;2024-01-07T04:18:10;-1.50;99.90
7028;DHT22;3555;53.248;10.336;2024-01-07T04:20:37;-1.40;99.90
7028;DHT22;3555;53.248;10.336;2024-01-07T04:23:04;-1.40;99.90
7028;DHT22;3555;53.248;10.336;2024-01-07T04:25:32;-1.40;99.90
7028;DHT22;3555;53.248;10.336;2024-01-07T04:27:59;-1.50;99.90
7028;DHT22;3555;53.248;10.336;2024-01-07T04:30:26;-1.30;99.90
7028;DHT22;3555;53.248;10.336;2024-01-07T04:32:53;-1.30;99.90
7028;DHT22;3555;53.248;10.336;2024-01-07T04:35:20;-1.30;99.90
7028;DHT22;3555;53.248;10.336;2024-01-07T04:37:46;-1.50;99.90
7028;DHT22;3555;53.248;10.336;2024-01-07T04:40:13;-1.40;99.90
7028;DHT22;3555;53.248;10.336;2024-01-07T04:42:42;-1.40;99.90
7028;DHT22;3555;53.248;10.336;2024-01-07T04:45:09;-1.50;99.90
7028;DHT22;3555;53.248;10.336;2024-01-07T04:47:35;-1.40;99.90
7028;DHT22;3555;53.248;10.336;2024-01-07T04:50:03;-1.40;99.90
7028;DHT22;3555;53.248;10.336;2024-01-07T04:52:30;-1.30;99.90
7028;DHT22;3555;53.248;10.336;2024-01-07T04:54:57;-1.30;99.90
7028;DHT22;3555;53.248;10.336;2024-01-07T04:57:24;-1.30;99.90
7028;DHT22;3555;53.248;10.336;2024-01-07T04:59:53;-1.20;99.90
7028;DHT22;3555;53.248;10.336;2024-01-07T05:02:20;-1.10;99.90
7028;DHT22;3555;53.248;10.336;2024-01-07T05:04:46;-1.10;99.90
7028;DHT22;3555;53.248;10.336;2024-01-07T05:07:13;-1.00;99.90
7028;DHT22;3555;53.248;10.336;2024-01-07T05:09:40;-1.10;99.90
7028;DHT22;3555;53.248;10.336;2024-01-07T05:12:07;-1.10;99.90
7028;DHT22;3555;53.248;10.336;2024-01-07T05:14:34;-1.00;99.90
7028;DHT22;3555;53.248;10.336;2024-01-07T05:17:03;-1.00;99.90
7028;DHT22;3555;53.248;10.336;2024-01-07T05:19:30;-1.00;99.90
7028;DHT22;3555;53.248;10.336;2024-01-07T05:21:58;-1.00;99.90
7028;DHT22;3555;53.248;10.336;2024-01-07T05:24:25;-0.90;99.90
7028;DHT22;3555;53.248;10.336;2024-01-07T05:26:52;-0.90;99.90
7028;DHT22;3555;53.248;10.336;2024-01-07T05:29:20;-0.80;99.90
7028;DHT22;3555;53.248;10.336;2024-01-07T05:31:46;-0.70;99.90
7028;DHT22;3555;53.248;10.336;2024-01-07T05:34:15;-0.70;99.90
7028;DHT22;3555;53.248;10.336;2024-01-07T05:36:41;-0.60;99.90
7028;DHT22;3555;53.248;10.336;2024-01-07T05:39:08;-0.60;99.90
7028;DHT22;3555;53.248;10.336;2024-01-07T05:41:37;-0.50;99.90
7028;DHT22;3555;53.248;10.336;2024-01-07T05:44:06;-0.40;99.90
7028;DHT22;3555;53.248;10.336;2024-01-07T05:46:33;-0.30;99.90
7028;DHT22;3555;53.248;10.336;2024-01-07T05:49:00;-0.30;99.90
7028;DHT22;3555;53.248;10.336;2024-01-07T05:51:28;-0.40;99.90
7028;DHT22;3555;53.248;10.336;2024-01-07T05:53:55;-0.40;99.90
7028;DHT22;3555;53.248;10.336;2024-01-07T05:56:21;-0.40;99.90
7028;DHT22;3555;53.248;10.336;2024-01-07T05:58:48;-0.40;99.90
7028;DHT22;3555;53.248;10.336;2024-01-07T06:01:18;-0.40;99.90
7028;DHT22;3555;53.248;10.336;2024-01-07T06:03:46;-0.40;99.90
7028;DHT22;3555;53.248;10.336;2024-01-07T06:06:13;-0.30;99.90
7028;DHT22;3555;53.248;10.336;2024-01-07T06:08:42;-0.30;99.90
7028;DHT22;3555;53.248;10.336;2024-01-07T06:11:09;-0.40;99.90
7028;DHT22;3555;53.248;10.336;2024-01-07T06:13:37;-0.30;99.90
7028;DHT22;3555;53.248;10.336;2024-01-07T06:16:04;-0.20;99.90
7028;DHT22;3555;53.248;10.336;2024-01-07T06:18:31;-0.10;99.90
7028;DHT22;3555;53.248;10.336;2024-01-07T06:20:58;-0.20;99.90
7028;DHT22;3555;53.248;10.336;2024-01-07T06:23:25;-0.10;99.90
7028;DHT22;3555;53.248;10.336;2024-01-07T06:25:53;-0.30;99.90
7028;DHT22;3555;53.248;10.336;2024-01-07T06:28:20;-0.20;99.90
7028;DHT22;3555;53.248;10.336;2024-01-07T06:30:47;-0.20;99.90
7028;DHT22;3555;53.248;10.336;2024-01-07T06:33:14;-0.20;99.90
7028;DHT22;3555;53.248;10.336;2024-01-07T06:35:41;-0.10;99.90
7028;DHT22;3555;53.248;10.336;2024-01-07T06:38:07;0.00;99.90
7028;DHT22;3555;53.248;10.336;2024-01-07T06:40:34;0.00;99.90
7028;DHT22;3555;53.248;10.336;2024-01-07T06:43:02;0.00;99.90
7028;DHT22;3555;53.248;10.336;2024-01-07T06:45:29;0.00;99.90
7028;DHT22;3555;53.248;10.336;2024-01-07T06:47:56;0.10;99.90
7028;DHT22;3555;53.248;10.336;2024-01-07T06:50:23;0.20;99.90
7028;DHT22;3555;53.248;10.336;2024-01-07T06:52:50;0.00;99.90
7028;DHT22;3555;53.248;10.336;2024-01-07T06:55:17;0.00;99.90
7028;DHT22;3555;53.248;10.336;2024-01-07T06:57:44;0.10;99.90
7028;DHT22;3555;53.248;10.336;2024-01-07T07:00:13;0.00;99.90
7028;DHT22;3555;53.248;10.336;2024-01-07T07:02:41;0.10;99.90
7028;DHT22;3555;53.248;10.336;2024-01-07T07:05:07;0.10;99.90
7028;DHT22;3555;53.248;10.336;2024-01-07T07:07:35;0.10;99.90
7028;DHT22;3555;53.248;10.336;2024-01-07T07:10:02;0.00;99.90
7028;DHT22;3555;53.248;10.336;2024-01-07T07:12:29;-0.20;99.90
7028;DHT22;3555;53.248;10.336;2024-01-07T07:14:56;-0.10;99.90
7028;DHT22;3555;53.248;10.336;2024-01-07T07:17:24;-0.10;99.90
7028;DHT22;3555;53.248;10.336;2024-01-07T07:19:51;-0.20;99.90
7028;DHT22;3555;53.248;10.336;2024-01-07T07:22:18;-0.10;99.90
7028;DHT22;3555;53.248;10.336;2024-01-07T07:24:44;0.00;99.90
7028;DHT22;3555;53.248;10.336;2024-01-07T07:27:11;0.00;99.90
7028;DHT22;3555;53.248;10.336;2024-01-07T07:29:38;0.10;99.90
7028;DHT22;3555;53.248;10.336;2024-01-07T07:32:06;0.20;99.90
7028;DHT22;3555;53.248;10.336;2024-01-07T07:34:35;0.20;99.90
7028;DHT22;3555;53.248;10.336;2024-01-07T07:37:02;0.30;99.90
7028;DHT22;3555;53.248;10.336;2024-01-07T07:39:29;0.40;99.90
7028;DHT22;3555;53.248;10.336;2024-01-07T07:41:56;0.40;99.90
7028;DHT22;3555;53.248;10.336;2024-01-07T07:44:23;0.40;99.90
7028;DHT22;3555;53.248;10.336;2024-01-07T07:46:49;0.40;99.90
7028;DHT22;3555;53.248;10.336;2024-01-07T07:49:16;0.40;99.90
7028;DHT22;3555;53.248;10.336;2024-01-07T07:51:45;0.50;99.90
7028;DHT22;3555;53.248;10.336;2024-01-07T07:54:11;0.50;99.90
7028;DHT22;3555;53.248;10.336;2024-01-07T07:56:38;0.60;99.90
7028;DHT22;3555;53.248;10.336;2024-01-07T07:59:05;0.60;99.90
7028;DHT22;3555;53.248;10.336;2024-01-07T08:01:34;0.60;99.90
7028;DHT22;3555;53.248;10.336;2024-01-07T08:04:01;0.70;99.90
7028;DHT22;3555;53.248;10.336;2024-01-07T08:06:30;0.70;99.90
7028;DHT22;3555;53.248;10.336;2024-01-07T08:08:58;0.70;99.90
7028;DHT22;3555;53.248;10.336;2024-01-07T08:11:25;0.70;99.90
7028;DHT22;3555;53.248;10.336;2024-01-07T08:13:52;0.70;99.90
7028;DHT22;3555;53.248;10.336;2024-01-07T08:16:19;0.60;99.90
7028;DHT22;3555;53.248;10.336;2024-01-07T08:18:46;0.60;99.90
7028;DHT22;3555;53.248;10.336;2024-01-07T08:21:13;0.60;99.90
7028;DHT22;3555;53.248;10.336;2024-01-07T08:23:40;0.60;99.90
7028;DHT22;3555;53.248;10.336;2024-01-07T08:26:08;0.60;99.90
7028;DHT22;3555;53.248;10.336;2024-01-07T08:28:35;0.60;99.90
7028;DHT22;3555;53.248;10.336;2024-01-07T08:31:02;0.60;99.90
7028;DHT22;3555;53.248;10.336;2024-01-07T08:33:28;0.60;99.90
7028;DHT22;3555;53.248;10.336;2024-01-07T08:35:58;0.60;99.90
7028;DHT22;3555;53.248;10.336;2024-01-07T08:38:25;0.50;99.90
7028;DHT22;3555;53.248;10.336;2024-01-07T08:40:52;0.50;99.90
7028;DHT22;3555;53.248;10.336;2024-01-07T08:43:20;0.40;99.90
7028;DHT22;3555;53.248;10.336;2024-01-07T08:45:47;0.40;99.90
7028;DHT22;3555;53.248;10.336;2024-01-07T08:48:14;0.20;99.90
7028;DHT22;3555;53.248;10.336;2024-01-07T08:50:40;0.30;99.90
7028;DHT22;3555;53.248;10.336;2024-01-07T08:53:07;0.10;99.90
7028;DHT22;3555;53.248;10.336;2024-01-07T08:55:34;0.10;99.90
7028;DHT22;3555;53.248;10.336;2024-01-07T08:58:01;0.10;99.90
7028;DHT22;3555;53.248;10.336;2024-01-07T09:00:29;-0.10;99.90
7028;DHT22;3555;53.248;10.336;2024-01-07T09:02:57;0.00;99.90
7028;DHT22;3555;53.248;10.336;2024-01-07T09:05:23;-0.10;99.90
7028;DHT22;3555;53.248;10.336;2024-01-07T09:07:50;-0.10;99.90
7028;DHT22;3555;53.248;10.336;2024-01-07T09:10:17;-0.20;99.90
7028;DHT22;3555;53.248;10.336;2024-01-07T09:12:46;-0.30;99.90
7028;DHT22;3555;53.248;10.336;2024-01-07T09:15:13;-0.30;99.90
7028;DHT22;3555;53.248;10.336;2024-01-07T09:17:41;-0.40;99.90
7028;DHT22;3555;53.248;10.336;2024-01-07T09:20:09;-0.50;99.90
7028;DHT22;3555;53.248;10.336;2024-01-07T09:22:36;-0.60;99.90
7028;DHT22;3555;53.248;10.336;2024-01-07T09:25:04;-0.50;99.90
7028;DHT22;3555;53.248;10.336;2024-01-07T09:27:32;-0.40;99.90
7028;DHT22;3555;53.248;10.336;2024-01-07T09:29:59;-0.30;99.90
7028;DHT22;3555;53.248;10.336;2024-01-07T09:32:26;-0.30;99.90
7028;DHT22;3555;53.248;10.336;2024-01-07T09:34:55;-0.30;99.90
7028;DHT22;3555;53.248;10.336;2024-01-07T09:37:21;-0.30;99.90
7028;DHT22;3555;53.248;10.336;2024-01-07T09:39:48;-0.10;99.90
7028;DHT22;3555;53.248;10.336;2024-01-07T09:42:16;0.10;99.90
7028;DHT22;3555;53.248;10.336;2024-01-07T09:44:44;0.20;99.90
7028;DHT22;3555;53.248;10.336;2024-01-07T09:47:12;0.30;99.90
7028;DHT22;3555;53.248;10.336;2024-01-07T09:49:40;0.20;99.90
7028;DHT22;3555;53.248;10.336;2024-01-07T09:52:09;0.10;99.90
7028;DHT22;3555;53.248;10.336;2024-01-07T09:54:37;0.10;99.90
7028;DHT22;3555;53.248;10.336;2024-01-07T09:57:05;0.00;99.90
7028;DHT22;3555;53.248;10.336;2024-01-07T09:59:33;0.20;99.90
7028;DHT22;3555;53.248;10.336;2024-01-07T10:02:00;0.20;99.90
7028;DHT22;3555;53.248;10.336;2024-01-07T10:04:28;0.40;99.90
7028;DHT22;3555;53.248;10.336;2024-01-07T10:06:55;0.60;99.90
7028;DHT22;3555;53.248;10.336;2024-01-07T10:09:24;0.60;99.90
7028;DHT22;3555;53.248;10.336;2024-01-07T10:11:52;0.60;99.90
7028;DHT22;3555;53.248;10.336;2024-01-07T10:14:19;0.70;99.90
7028;DHT22;3555;53.248;10.336;2024-01-07T10:16:48;0.80;99.90
7028;DHT22;3555;53.248;10.336;2024-01-07T10:19:20;0.90;99.90
7028;DHT22;3555;53.248;10.336;2024-01-07T10:21:59;1.10;99.90
7028;DHT22;3555;53.248;10.336;2024-01-07T10:24:35;1.30;99.90
7028;DHT22;3555;53.248;10.336;2024-01-07T10:27:03;1.30;99.90
7028;DHT22;3555;53.248;10.336;2024-01-07T10:29:30;1.30;99.90
7028;DHT22;3555;53.248;10.336;2024-01-07T10:31:57;1.40;99.90
7028;DHT22;3555;53.248;10.336;2024-01-07T10:34:25;1.50;99.90
7028;DHT22;3555;53.248;10.336;2024-01-07T10:36:54;1.70;99.90
7028;DHT22;3555;53.248;10.336;2024-01-07T10:39:23;1.90;99.90
7028;DHT22;3555;53.248;10.336;2024-01-07T10:41:52;2.00;99.90
7028;DHT22;3555;53.248;10.336;2024-01-07T10:44:22;2.10;99.90
7028;DHT22;3555;53.248;10.336;2024-01-07T10:46:50;2.20;99.90
7028;DHT22;3555;53.248;10.336;2024-01-07T10:49:20;2.30;99.90
7028;DHT22;3555;53.248;10.336;2024-01-07T10:51:54;2.30;99.90
7028;DHT22;3555;53.248;10.336;2024-01-07T10:54:24;2.40;99.90
7028;DHT22;3555;53.248;10.336;2024-01-07T10:56:58;2.40;99.90
7028;DHT22;3555;53.248;10.336;2024-01-07T10:59:29;2.20;99.90
7028;DHT22;3555;53.248;10.336;2024-01-07T11:01:58;2.30;99.90
7028;DHT22;3555;53.248;10.336;2024-01-07T11:04:32;2.30;99.90
7028;DHT22;3555;53.248;10.336;2024-01-07T11:07:05;2.40;99.90
7028;DHT22;3555;53.248;10.336;2024-01-07T11:09:39;2.30;99.90
7028;DHT22;3555;53.248;10.336;2024-01-07T11:12:12;2.20;99.90
7028;DHT22;3555;53.248;10.336;2024-01-07T11:14:40;2.30;99.90
7028;DHT22;3555;53.248;10.336;2024-01-07T11:17:10;2.10;99.90
7028;DHT22;3555;53.248;10.336;2024-01-07T11:19:38;2.20;99.90
7028;DHT22;3555;53.248;10.336;2024-01-07T11:22:23;2.30;99.90
7028;DHT22;3555;53.248;10.336;2024-01-07T11:24:53;2.40;99.90
7028;DHT22;3555;53.248;10.336;2024-01-07T11:27:23;2.40;99.90
7028;DHT22;3555;53.248;10.336;2024-01-07T11:29:54;2.40;99.90
7028;DHT22;3555;53.248;10.336;2024-01-07T11:32:22;2.40;99.90
7028;DHT22;3555;53.248;10.336;2024-01-07T11:34:50;2.20;99.90
7028;DHT22;3555;53.248;10.336;2024-01-07T11:37:19;2.00;99.90
7028;DHT22;3555;53.248;10.336;2024-01-07T11:39:47;2.00;99.90
7028;DHT22;3555;53.248;10.336;2024-01-07T11:42:15;1.90;99.90
7028;DHT22;3555;53.248;10.336;2024-01-07T11:44:51;1.80;99.90
7028;DHT22;3555;53.248;10.336;2024-01-07T11:47:19;1.70;99.90
7028;DHT22;3555;53.248;10.336;2024-01-07T11:49:46;1.40;99.90
7028;DHT22;3555;53.248;10.336;2024-01-07T11:52:14;1.40;99.90
7028;DHT22;3555;53.248;10.336;2024-01-07T11:54:43;1.20;99.90
7028;DHT22;3555;53.248;10.336;2024-01-07T11:57:10;1.40;99.90
7028;DHT22;3555;53.248;10.336;2024-01-07T11:59:38;1.50;99.90
7028;DHT22;3555;53.248;10.336;2024-01-07T12:02:07;1.50;99.90
7028;DHT22;3555;53.248;10.336;2024-01-07T12:04:34;1.50;99.90
7028;DHT22;3555;53.248;10.336;2024-01-07T12:07:01;1.40;99.90
7028;DHT22;3555;53.248;10.336;2024-01-07T12:09:29;1.50;99.90
7028;DHT22;3555;53.248;10.336;2024-01-07T12:11:56;1.40;99.90
7028;DHT22;3555;53.248;10.336;2024-01-07T12:14:23;1.40;99.90
7028;DHT22;3555;53.248;10.336;2024-01-07T12:16:50;1.40;99.90
7028;DHT22;3555;53.248;10.336;2024-01-07T12:19:18;1.30;99.90
7028;DHT22;3555;53.248;10.336;2024-01-07T12:21:45;1.30;99.90
7028;DHT22;3555;53.248;10.336;2024-01-07T12:24:13;1.40;99.90
7028;DHT22;3555;53.248;10.336;2024-01-07T12:26:40;1.60;99.90
7028;DHT22;3555;53.248;10.336;2024-01-07T12:29:07;1.80;99.90
7028;DHT22;3555;53.248;10.336;2024-01-07T12:31:35;1.90;99.90
7028;DHT22;3555;53.248;10.336;2024-01-07T12:34:04;2.00;99.90
7028;DHT22;3555;53.248;10.336;2024-01-07T12:36:33;2.00;99.90
7028;DHT22;3555;53.248;10.336;2024-01-07T12:39:00;2.00;99.90
7028;DHT22;3555;53.248;10.336;2024-01-07T12:41:26;2.00;99.90
7028;DHT22;3555;53.248;10.336;2024-01-07T12:43:54;2.10;99.90
7028;DHT22;3555;53.248;10.336;2024-01-07T12:46:21;2.00;99.90
7028;DHT22;3555;53.248;10.336;2024-01-07T12:48:48;2.00;99.90
7028;DHT22;3555;53.248;10.336;2024-01-07T12:51:15;2.10;99.90
7028;DHT22;3555;53.248;10.336;2024-01-07T12:53:43;2.00;99.90
7028;DHT22;3555;53.248;10.336;2024-01-07T12:56:10;1.80;99.90
7028;DHT22;3555;53.248;10.336;2024-01-07T12:58:38;1.60;99.90
7028;DHT22;3555;53.248;10.336;2024-01-07T13:01:05;1.30;99.90
7028;DHT22;3555;53.248;10.336;2024-01-07T13:03:32;1.10;99.90
7028;DHT22;3555;53.248;10.336;2024-01-07T13:05:59;1.00;99.90
7028;DHT22;3555;53.248;10.336;2024-01-07T13:08:26;1.00;99.90
7028;DHT22;3555;53.248;10.336;2024-01-07T13:10:55;0.90;99.90
7028;DHT22;3555;53.248;10.336;2024-01-07T13:13:22;0.90;99.90
7028;DHT22;3555;53.248;10.336;2024-01-07T13:15:49;0.70;99.90
7028;DHT22;3555;53.248;10.336;2024-01-07T13:18:16;0.70;99.90
7028;DHT22;3555;53.248;10.336;2024-01-07T13:20:43;0.70;99.90
7028;DHT22;3555;53.248;10.336;2024-01-07T13:23:10;0.60;99.90
7028;DHT22;3555;53.248;10.336;2024-01-07T13:25:37;0.60;99.90
7028;DHT22;3555;53.248;10.336;2024-01-07T13:28:05;0.50;99.90
7028;DHT22;3555;53.248;10.336;2024-01-07T13:30:36;0.50;99.90
7028;DHT22;3555;53.248;10.336;2024-01-07T13:33:03;0.40;99.90
7028;DHT22;3555;53.248;10.336;2024-01-07T13:35:30;0.40;99.90
7028;DHT22;3555;53.248;10.336;2024-01-07T13:37:57;0.40;99.90
7028;DHT22;3555;53.248;10.336;2024-01-07T13:40:24;0.40;99.90
7028;DHT22;3555;53.248;10.336;2024-01-07T13:42:52;0.50;99.90
7028;DHT22;3555;53.248;10.336;2024-01-07T13:45:21;0.40;99.90
7028;DHT22;3555;53.248;10.336;2024-01-07T13:47:48;0.50;99.90
7028;DHT22;3555;53.248;10.336;2024-01-07T13:50:15;0.60;99.90
7028;DHT22;3555;53.248;10.336;2024-01-07T13:52:43;0.60;99.90
7028;DHT22;3555;53.248;10.336;2024-01-07T13:55:10;0.60;99.90
7028;DHT22;3555;53.248;10.336;2024-01-07T13:57:38;0.60;99.90
7028;DHT22;3555;53.248;10.336;2024-01-07T14:00:07;0.60;99.90
7028;DHT22;3555;53.248;10.336;2024-01-07T14:02:37;0.60;99.90
7028;DHT22;3555;53.248;10.336;2024-01-07T14:05:05;0.70;99.90
7028;DHT22;3555;53.248;10.336;2024-01-07T14:07:34;0.40;99.90
7028;DHT22;3555;53.248;10.336;2024-01-07T14:10:01;0.40;99.90
7028;DHT22;3555;53.248;10.336;2024-01-07T14:12:29;0.20;99.90
7028;DHT22;3555;53.248;10.336;2024-01-07T14:14:56;0.10;99.90
7028;DHT22;3555;53.248;10.336;2024-01-07T14:17:24;0.10;99.90
7028;DHT22;3555;53.248;10.336;2024-01-07T14:19:52;0.00;99.90
7028;DHT22;3555;53.248;10.336;2024-01-07T14:22:19;0.00;99.90
7028;DHT22;3555;53.248;10.336;2024-01-07T14:24:46;0.00;99.90
7028;DHT22;3555;53.248;10.336;2024-01-07T14:27:14;0.00;99.90
7028;DHT22;3555;53.248;10.336;2024-01-07T14:29:41;0.10;99.90
7028;DHT22;3555;53.248;10.336;2024-01-07T14:32:08;0.10;99.90
7028;DHT22;3555;53.248;10.336;2024-01-07T14:34:38;0.10;99.90
7028;DHT22;3555;53.248;10.336;2024-01-07T14:37:08;0.10;99.90
7028;DHT22;3555;53.248;10.336;2024-01-07T14:39:35;0.30;99.90
7028;DHT22;3555;53.248;10.336;2024-01-07T14:42:02;0.20;99.90
7028;DHT22;3555;53.248;10.336;2024-01-07T14:44:29;0.20;99.90
7028;DHT22;3555;53.248;10.336;2024-01-07T14:46:56;0.10;99.90
7028;DHT22;3555;53.248;10.336;2024-01-07T14:49:23;0.00;99.90
7028;DHT22;3555;53.248;10.336;2024-01-07T14:51:50;0.00;99.90
7028;DHT22;3555;53.248;10.336;2024-01-07T14:54:18;0.00;99.90
7028;DHT22;3555;53.248;10.336;2024-01-07T14:56:45;0.00;99.90
7028;DHT22;3555;53.248;10.336;2024-01-07T14:59:12;0.00;99.90
7028;DHT22;3555;53.248;10.336;2024-01-07T15:01:39;-0.10;99.90
7028;DHT22;3555;53.248;10.336;2024-01-07T15:04:09;-0.10;99.90
7028;DHT22;3555;53.248;10.336;2024-01-07T15:06:40;-0.20;99.90
7028;DHT22;3555;53.248;10.336;2024-01-07T15:09:07;-0.20;99.90
7028;DHT22;3555;53.248;10.336;2024-01-07T15:11:36;-0.20;99.90
7028;DHT22;3555;53.248;10.336;2024-01-07T15:14:04;-0.10;99.90
7028;DHT22;3555;53.248;10.336;2024-01-07T15:16:34;0.00;99.90
7028;DHT22;3555;53.248;10.336;2024-01-07T15:19:01;0.00;99.90
7028;DHT22;3555;53.248;10.336;2024-01-07T15:21:28;-0.10;99.90
7028;DHT22;3555;53.248;10.336;2024-01-07T15:23:55;-0.10;99.90
7028;DHT22;3555;53.248;10.336;2024-01-07T15:26:23;-0.20;99.90
7028;DHT22;3555;53.248;10.336;2024-01-07T15:28:51;-0.30;99.90
7028;DHT22;3555;53.248;10.336;2024-01-07T15:31:18;-0.20;99.90
7028;DHT22;3555;53.248;10.336;2024-01-07T15:33:45;-0.20;99.90
7028;DHT22;3555;53.248;10.336;2024-01-07T15:36:12;-0.20;99.90
7028;DHT22;3555;53.248;10.336;2024-01-07T15:38:39;-0.30;99.90
7028;DHT22;3555;53.248;10.336;2024-01-07T15:41:05;-0.30;99.90
7028;DHT22;3555;53.248;10.336;2024-01-07T15:43:32;-0.40;99.90
7028;DHT22;3555;53.248;10.336;2024-01-07T15:46:00;-0.50;99.90
7028;DHT22;3555;53.248;10.336;2024-01-07T15:48:28;-0.40;99.90
7028;DHT22;3555;53.248;10.336;2024-01-07T15:50:56;-0.50;99.90
7028;DHT22;3555;53.248;10.336;2024-01-07T15:53:23;-0.50;99.90